SKG793 CYPT-CYXU
Flight info
| Callsign | SKG793 |
|---|---|
| Flight time | 0h 24m |
| Altitude | 11000 |
| Route | DCT |
| Aircraft | MU2/L-VGD/C |
Departure
| Time | 2026-05-04 01:35 |
|---|---|
| Airport | Pelee Island Airport (CYPT) |
Arrival
| Time | 2026-05-04 02:00 |
|---|---|
| Airport | London International Airport (CYXU) |
| Time | Latitude | Longitude | Altitude | Speed | Heading |
|---|---|---|---|---|---|
| 2026-05-04 01:27 | 41.77993 | -82.67039 | 575 ft | 0 kts | 175° |
| 2026-05-04 01:33 | 41.77983 | -82.67068 | 575 ft | 7 kts | 283° |
| 2026-05-04 01:33 | 41.77988 | -82.67158 | 575 ft | 9 kts | 268° |
| 2026-05-04 01:33 | 41.78009 | -82.67206 | 575 ft | 6 kts | 354° |
| 2026-05-04 01:34 | 41.78054 | -82.67209 | 575 ft | 5 kts | 354° |
| 2026-05-04 01:34 | 41.78064 | -82.67238 | 575 ft | 1 kts | 266° |
| 2026-05-04 01:34 | 41.78064 | -82.67252 | 575 ft | 11 kts | 268° |
| 2026-05-04 01:34 | 41.78059 | -82.67797 | 575 ft | 99 kts | 270° |
| 2026-05-04 01:35 | 41.78068 | -82.68801 | 902 ft | 107 kts | 267° |
| 2026-05-04 01:35 | 41.78101 | -82.69765 | 1417 ft | 107 kts | 267° |
| 2026-05-04 01:35 | 41.78405 | -82.70798 | 1834 ft | 138 kts | 300° |
| 2026-05-04 01:35 | 41.79368 | -82.71403 | 2427 ft | 171 kts | 350° |
| 2026-05-04 01:36 | 41.80503 | -82.70789 | 3037 ft | 194 kts | 39° |
| 2026-05-04 01:36 | 41.81239 | -82.69178 | 3457 ft | 215 kts | 75° |
| 2026-05-04 01:36 | 41.81245 | -82.67202 | 4024 ft | 213 kts | 109° |
| 2026-05-04 01:36 | 41.80948 | -82.65243 | 4436 ft | 229 kts | 99° |
| 2026-05-04 01:37 | 41.81269 | -82.63142 | 4929 ft | 233 kts | 57° |
| 2026-05-04 01:37 | 41.82318 | -82.61581 | 5597 ft | 222 kts | 34° |
| 2026-05-04 01:37 | 41.83662 | -82.60559 | 6104 ft | 225 kts | 25° |
| 2026-05-04 01:37 | 41.84925 | -82.59281 | 6665 ft | 229 kts | 33° |
| 2026-05-04 01:38 | 41.86120 | -82.57901 | 7191 ft | 231 kts | 35° |
| 2026-05-04 01:38 | 41.87331 | -82.56467 | 7719 ft | 231 kts | 35° |
| 2026-05-04 01:38 | 41.88532 | -82.55039 | 8215 ft | 232 kts | 36° |
| 2026-05-04 01:38 | 41.89744 | -82.53599 | 8713 ft | 234 kts | 36° |
| 2026-05-04 01:39 | 41.90950 | -82.52165 | 9287 ft | 234 kts | 36° |
| 2026-05-04 01:39 | 41.92169 | -82.50714 | 9818 ft | 235 kts | 36° |
| 2026-05-04 01:39 | 41.93399 | -82.49250 | 10344 ft | 236 kts | 36° |
| 2026-05-04 01:39 | 41.94640 | -82.47772 | 10844 ft | 239 kts | 36° |
| 2026-05-04 01:40 | 41.95922 | -82.46248 | 11005 ft | 256 kts | 36° |
| 2026-05-04 01:40 | 41.97325 | -82.44573 | 11023 ft | 273 kts | 37° |
| 2026-05-04 01:40 | 41.98769 | -82.42849 | 11089 ft | 281 kts | 37° |
| 2026-05-04 01:40 | 42.00232 | -82.41101 | 11324 ft | 281 kts | 37° |
| 2026-05-04 01:41 | 42.01698 | -82.39349 | 11559 ft | 282 kts | 37° |
| 2026-05-04 01:41 | 42.03147 | -82.37617 | 11795 ft | 282 kts | 37° |
| 2026-05-04 01:41 | 42.04643 | -82.35826 | 12033 ft | 281 kts | 37° |
| 2026-05-04 01:41 | 42.06142 | -82.34055 | 12261 ft | 281 kts | 36° |
| 2026-05-04 01:42 | 42.07654 | -82.32398 | 12480 ft | 280 kts | 34° |
| 2026-05-04 01:42 | 42.09176 | -82.30757 | 12700 ft | 280 kts | 34° |
| 2026-05-04 01:42 | 42.10696 | -82.29121 | 12916 ft | 280 kts | 34° |
| 2026-05-04 01:42 | 42.12216 | -82.27485 | 13038 ft | 283 kts | 34° |
| 2026-05-04 01:43 | 42.13763 | -82.25819 | 13051 ft | 289 kts | 34° |
| 2026-05-04 01:43 | 42.15349 | -82.24108 | 13050 ft | 293 kts | 35° |
| 2026-05-04 01:43 | 42.16950 | -82.22380 | 13051 ft | 295 kts | 35° |
| 2026-05-04 01:43 | 42.18539 | -82.20665 | 13053 ft | 297 kts | 35° |
| 2026-05-04 01:44 | 42.20155 | -82.18918 | 13054 ft | 298 kts | 35° |
| 2026-05-04 01:44 | 42.21771 | -82.17172 | 13049 ft | 298 kts | 35° |
| 2026-05-04 01:44 | 42.23397 | -82.15412 | 13046 ft | 299 kts | 35° |
| 2026-05-04 01:44 | 42.25024 | -82.13651 | 13041 ft | 299 kts | 35° |
| 2026-05-04 01:45 | 42.26628 | -82.11912 | 13038 ft | 299 kts | 35° |
| 2026-05-04 01:45 | 42.28260 | -82.10143 | 13046 ft | 299 kts | 35° |
| 2026-05-04 01:45 | 42.31502 | -82.06625 | 13055 ft | 300 kts | 35° |
| 2026-05-04 01:46 | 42.33133 | -82.04853 | 13052 ft | 300 kts | 34° |
| 2026-05-04 01:46 | 42.34748 | -82.03097 | 13058 ft | 301 kts | 35° |
| 2026-05-04 01:46 | 42.36392 | -82.01310 | 13049 ft | 302 kts | 35° |
| 2026-05-04 01:46 | 42.38028 | -81.99528 | 13043 ft | 302 kts | 34° |
| 2026-05-04 01:47 | 42.39654 | -81.97759 | 13043 ft | 302 kts | 35° |
| 2026-05-04 01:47 | 42.41286 | -81.95970 | 13047 ft | 301 kts | 35° |
| 2026-05-04 01:47 | 42.42912 | -81.94205 | 13040 ft | 301 kts | 34° |
| 2026-05-04 01:47 | 42.44547 | -81.92419 | 13033 ft | 301 kts | 34° |
| 2026-05-04 01:48 | 42.46159 | -81.90659 | 13024 ft | 300 kts | 34° |
| 2026-05-04 01:48 | 42.47779 | -81.88889 | 12999 ft | 300 kts | 34° |
| 2026-05-04 01:48 | 42.49408 | -81.87107 | 12990 ft | 300 kts | 34° |
| 2026-05-04 01:48 | 42.51020 | -81.85342 | 12985 ft | 299 kts | 34° |
| 2026-05-04 01:49 | 42.52651 | -81.83556 | 12982 ft | 299 kts | 34° |
| 2026-05-04 01:49 | 42.54268 | -81.81784 | 12989 ft | 299 kts | 34° |
| 2026-05-04 01:49 | 42.55869 | -81.80027 | 12994 ft | 299 kts | 34° |
| 2026-05-04 01:49 | 42.57486 | -81.78253 | 12989 ft | 299 kts | 34° |
| 2026-05-04 01:50 | 42.59092 | -81.76489 | 12979 ft | 299 kts | 34° |
| 2026-05-04 01:50 | 42.60720 | -81.74699 | 12979 ft | 299 kts | 34° |
| 2026-05-04 01:50 | 42.62316 | -81.72945 | 12975 ft | 299 kts | 34° |
| 2026-05-04 01:50 | 42.63933 | -81.71165 | 13004 ft | 298 kts | 34° |
| 2026-05-04 01:51 | 42.65559 | -81.69374 | 12986 ft | 299 kts | 34° |
| 2026-05-04 01:51 | 42.67185 | -81.67583 | 12785 ft | 306 kts | 34° |
| 2026-05-04 01:51 | 42.68843 | -81.65755 | 12460 ft | 313 kts | 34° |
| 2026-05-04 01:51 | 42.70549 | -81.63871 | 12031 ft | 312 kts | 34° |
| 2026-05-04 01:52 | 42.72203 | -81.62044 | 11603 ft | 309 kts | 34° |
| 2026-05-04 01:52 | 42.73870 | -81.60201 | 11171 ft | 306 kts | 34° |
| 2026-05-04 01:52 | 42.75500 | -81.58399 | 10746 ft | 305 kts | 34° |
| 2026-05-04 01:52 | 42.77151 | -81.56572 | 10315 ft | 303 kts | 34° |
| 2026-05-04 01:53 | 42.78769 | -81.54780 | 9894 ft | 302 kts | 34° |
| 2026-05-04 01:53 | 42.80381 | -81.52993 | 9477 ft | 301 kts | 34° |
| 2026-05-04 01:53 | 42.82015 | -81.51180 | 9053 ft | 301 kts | 34° |
| 2026-05-04 01:53 | 42.83622 | -81.49397 | 8642 ft | 301 kts | 34° |
| 2026-05-04 01:54 | 42.85245 | -81.47594 | 8229 ft | 301 kts | 34° |
| 2026-05-04 01:54 | 42.86862 | -81.45798 | 7821 ft | 302 kts | 34° |
| 2026-05-04 01:54 | 42.88497 | -81.43978 | 7417 ft | 302 kts | 34° |
| 2026-05-04 01:54 | 42.90104 | -81.42190 | 7008 ft | 299 kts | 34° |
| 2026-05-04 01:55 | 42.91751 | -81.40356 | 6600 ft | 297 kts | 34° |
| 2026-05-04 01:55 | 42.93409 | -81.38509 | 6180 ft | 295 kts | 34° |
| 2026-05-04 01:55 | 42.95080 | -81.36644 | 5749 ft | 292 kts | 34° |
| 2026-05-04 01:55 | 42.96797 | -81.34727 | 5307 ft | 289 kts | 35° |
| 2026-05-04 01:56 | 42.98479 | -81.32846 | 4852 ft | 269 kts | 35° |
| 2026-05-04 01:56 | 43.00023 | -81.31117 | 4363 ft | 248 kts | 35° |
| 2026-05-04 01:56 | 43.01411 | -81.29561 | 3883 ft | 236 kts | 35° |
| 2026-05-04 01:56 | 43.02666 | -81.28155 | 3448 ft | 228 kts | 36° |
| 2026-05-04 01:57 | 43.03878 | -81.26798 | 3078 ft | 220 kts | 36° |
| 2026-05-04 01:57 | 43.05017 | -81.25511 | 2898 ft | 205 kts | 37° |
| 2026-05-04 01:57 | 43.06075 | -81.24278 | 2644 ft | 197 kts | 38° |
| 2026-05-04 01:57 | 43.07092 | -81.23058 | 2421 ft | 191 kts | 39° |
| 2026-05-04 01:58 | 43.07924 | -81.21768 | 2163 ft | 175 kts | 63° |
| 2026-05-04 01:58 | 43.08042 | -81.20208 | 1996 ft | 166 kts | 118° |
| 2026-05-04 01:58 | 43.07265 | -81.19086 | 1694 ft | 154 kts | 156° |
| 2026-05-04 01:58 | 43.06402 | -81.18389 | 1594 ft | 133 kts | 155° |
| 2026-05-04 01:59 | 43.05690 | -81.17722 | 1395 ft | 121 kts | 150° |
| 2026-05-04 01:59 | 43.05050 | -81.16993 | 1207 ft | 119 kts | 142° |
| 2026-05-04 01:59 | 43.04429 | -81.16243 | 1007 ft | 116 kts | 146° |
| 2026-05-04 01:59 | 43.03834 | -81.15532 | 911 ft | 102 kts | 139° |
| 2026-05-04 02:00 | 43.03514 | -81.15150 | 906 ft | 18 kts | 142° |
| 2026-05-04 02:00 | 43.03449 | -81.15070 | 905 ft | 14 kts | 139° |
| 2026-05-04 02:00 | 43.03367 | -81.15036 | 904 ft | 11 kts | 212° |
| 2026-05-04 02:00 | 43.03303 | -81.15134 | 902 ft | 10 kts | 227° |
| 2026-05-04 02:01 | 43.03256 | -81.15197 | 903 ft | 8 kts | 223° |
| 2026-05-04 02:01 | 43.03213 | -81.15273 | 903 ft | 6 kts | 232° |
| 2026-05-04 02:01 | 43.03199 | -81.15295 | 903 ft | 1 kts | 229° |
| 2026-05-04 02:01 | 43.03193 | -81.15321 | 903 ft | 4 kts | 267° |
| 2026-05-04 02:02 | 43.03197 | -81.15342 | 903 ft | 0 kts | 316° |
| 2026-05-04 02:02 | 43.03197 | -81.15343 | 903 ft | 0 kts | 316° |